Terminal Aerodrome Forecast
Issued by NWS

Home | Current Version | Previous Version | Text Only | Print | Product List | Glossary On
Versions: 1 2 3 4 5 6 7 8 9 10 11 12 13 14 15 16 17 18 19 20 21 22 23 24 25 26 27 28 29 30 31 32 33 34 35 36 37 38 39
000
FTUS44 KHGX 230556 AAA
TAFIAH
TAF AMD
KIAH 230556Z 2306/2412 01006KT P6SM OVC015
     FM231200 02005KT P6SM BKN015
     FM232100 33006KT P6SM VCSH BKN025 BKN050
     FM240100 34007KT 6SM -TSRA OVC030CB
     FM240400 35009KT P6SM SCT050
     FM240600 35013KT P6SM FEW020=

USA.gov is the U.S. government's official web portal to all federal, state and local government web resources and services.